Time;durP1;ratioP1;P1;durP2;ratioP2;P2;SDS_P1;SDS_P2;PMS_P1;PMS_P2;Temp;Humidity;BMP_temperature;BMP_pressure;BME280_temperature;BME280_humidity;BME280_pressure;Samples;Min_cycle;Max_cycle;Signal;HPM_P1;HPM_P2
2022/12/04 00:00:39;;;;;;;98.40;34.13;;;3.40;97.90;;;;;;5011165;28;20033;-76
2022/12/04 00:03:05;;;;;;;84.13;33.28;;;3.40;97.90;;;;;;5011584;28;20451;-76
2022/12/04 00:05:30;;;;;;;87.63;31.27;;;3.30;98.00;;;;;;5011170;28;20060;-76
2022/12/04 00:07:56;;;;;;;97.95;34.00;;;3.40;98.10;;;;;;5009909;28;20096;-76
2022/12/04 00:10:22;;;;;;;89.45;31.65;;;3.40;98.20;;;;;;5010947;28;20037;-76
2022/12/04 00:12:47;;;;;;;83.40;30.67;;;3.60;98.30;;;;;;5011027;28;20050;-75
2022/12/04 00:15:14;;;;;;;86.13;31.25;;;3.40;98.20;;;;;;5015131;28;20072;-75
2022/12/04 00:17:39;;;;;;;91.68;30.42;;;3.50;98.20;;;;;;5014889;28;20036;-75
2022/12/04 00:20:06;;;;;;;87.57;29.58;;;3.50;98.20;;;;;;5013538;28;20038;-76
2022/12/04 00:22:32;;;;;;;84.15;30.58;;;3.50;98.10;;;;;;5014726;28;20045;-75
2022/12/04 00:24:58;;;;;;;84.85;30.00;;;3.50;98.10;;;;;;5014694;28;20431;-74
2022/12/04 00:27:23;;;;;;;75.05;28.23;;;3.50;98.10;;;;;;5014062;28;20036;-77
2022/12/04 00:29:49;;;;;;;82.65;30.88;;;3.60;98.20;;;;;;5014800;28;20491;-75
2022/12/04 00:32:15;;;;;;;85.00;29.42;;;3.50;98.10;;;;;;5014621;28;20034;-76
2022/12/04 00:34:40;;;;;;;82.30;29.00;;;3.40;98.10;;;;;;5013425;28;20143;-75
2022/12/04 00:37:06;;;;;;;86.28;30.10;;;3.50;98.20;;;;;;5013404;28;20030;-75
2022/12/04 00:39:32;;;;;;;87.63;29.50;;;3.40;98.30;;;;;;5014679;28;20093;-76
2022/12/04 00:41:57;;;;;;;84.75;28.80;;;3.40;98.30;;;;;;5014231;28;20368;-77
2022/12/04 00:44:23;;;;;;;84.03;28.48;;;3.40;98.30;;;;;;5014258;28;20030;-75
2022/12/04 00:46:48;;;;;;;82.45;29.08;;;3.50;98.30;;;;;;5014031;28;20038;-75
2022/12/04 00:49:14;;;;;;;96.65;31.10;;;3.50;98.20;;;;;;5014064;28;20031;-75
2022/12/04 00:51:40;;;;;;;84.78;29.15;;;3.40;98.20;;;;;;5014440;28;20121;-76
2022/12/04 00:54:06;;;;;;;88.28;31.63;;;3.40;98.30;;;;;;5014680;28;20022;-77
2022/12/04 00:56:31;;;;;;;86.80;30.25;;;3.50;98.30;;;;;;5012852;28;20356;-76
2022/12/04 00:59:00;;;;;;;86.43;30.02;;;3.40;98.40;;;;;;5013981;28;20057;-76
2022/12/04 01:01:27;;;;;;;88.97;30.92;;;3.40;98.50;;;;;;5014271;28;20026;-75
2022/12/04 01:03:54;;;;;;;79.53;29.23;;;3.40;98.50;;;;;;5012976;28;20022;-75
2022/12/04 01:06:32;;;;;;;89.23;30.37;;;3.50;98.60;;;;;;5014330;28;20023;-76
2022/12/04 01:08:58;;;;;;;;;;;3.50;98.50;;;;;;5013228;28;20087;-77
2022/12/04 01:11:25;;;;;;;88.38;29.52;;;3.40;98.40;;;;;;5013696;28;19918;-75
2022/12/04 01:13:51;;;;;;;95.70;31.05;;;3.40;98.40;;;;;;5013661;28;20126;-75
2022/12/04 01:16:23;;;;;;;93.70;30.77;;;3.40;98.50;;;;;;5013662;28;20146;-78
2022/12/04 01:18:49;;;;;;;95.45;34.08;;;3.30;98.50;;;;;;5013700;28;20022;-75
2022/12/04 01:21:15;;;;;;;99.10;32.38;;;3.40;98.50;;;;;;5014045;28;20105;-75
2022/12/04 01:23:41;;;;;;;99.00;34.40;;;3.40;98.50;;;;;;5013652;28;20160;-75
2022/12/04 01:26:07;;;;;;;95.43;32.75;;;3.40;98.60;;;;;;5012569;28;20109;-76
2022/12/04 01:28:33;;;;;;;102.50;33.13;;;3.40;98.60;;;;;;5013405;28;20113;-75
2022/12/04 01:31:07;;;;;;;101.50;32.38;;;3.40;98.60;;;;;;5012169;28;20041;-77
2022/12/04 01:33:34;;;;;;;94.82;31.15;;;3.30;98.60;;;;;;5013831;28;20029;-76
2022/12/04 01:36:01;;;;;;;97.78;31.10;;;3.30;98.70;;;;;;5013127;28;20476;-76
2022/12/04 01:38:27;;;;;;;88.28;31.08;;;3.30;98.80;;;;;;5013297;28;20042;-76
2022/12/04 01:40:53;;;;;;;84.82;29.27;;;3.40;98.90;;;;;;5012917;28;20041;-75
2022/12/04 01:43:20;;;;;;;97.13;29.67;;;3.30;98.70;;;;;;5013004;28;20038;-76
2022/12/04 01:45:51;;;;;;;95.70;31.33;;;3.30;98.90;;;;;;5013342;28;20030;-79
2022/12/04 01:48:34;;;;;;;84.43;29.58;;;3.30;98.80;;;;;;5013545;28;20452;-78
2022/12/04 01:51:05;;;;;;;92.82;28.13;;;3.30;98.90;;;;;;5012974;28;20034;-80
2022/12/04 01:53:32;;;;;;;78.32;26.30;;;3.40;99.00;;;;;;5012939;28;20084;-79
2022/12/04 01:55:58;;;;;;;90.03;28.48;;;3.30;98.90;;;;;;5011904;28;20033;-79
2022/12/04 01:58:30;;;;;;;83.75;28.80;;;3.30;99.00;;;;;;5012901;28;20030;-77
2022/12/04 02:01:00;;;;;;;78.60;29.02;;;3.30;99.00;;;;;;5012829;28;20049;-77
2022/12/04 02:03:26;;;;;;;82.60;26.73;;;3.40;99.10;;;;;;5013654;28;20029;-78
2022/12/04 02:05:51;;;;;;;81.68;28.13;;;3.40;99.10;;;;;;5011757;28;20547;-79
2022/12/04 02:08:17;;;;;;;81.68;25.85;;;3.30;99.10;;;;;;5011764;28;20493;-77
2022/12/04 02:10:58;;;;;;;79.20;26.02;;;3.30;99.20;;;;;;5011767;28;20033;-78
2022/12/04 02:13:26;;;;;;;76.82;25.45;;;3.30;99.30;;;;;;5013000;28;20069;-80
2022/12/04 02:16:03;;;;;;;80.70;26.02;;;3.30;99.20;;;;;;5012937;28;20266;-78
2022/12/04 02:18:38;;;;;;;76.32;27.15;;;3.20;99.30;;;;;;5013176;28;20057;-80
2022/12/04 02:21:26;;;;;;;80.75;27.58;;;3.20;99.40;;;;;;5012509;28;20050;-78
2022/12/04 02:23:55;;;;;;;74.22;25.48;;;3.30;99.40;;;;;;5012806;28;20141;-78
2022/12/04 02:26:45;;;;;;;77.07;25.67;;;3.30;99.40;;;;;;5011651;28;20105;-78
2022/12/04 02:29:19;;;;;;;73.68;25.05;;;3.30;99.40;;;;;;5011733;28;20034;-81
2022/12/04 02:32:20;;;;;;;65.30;24.23;;;3.30;99.30;;;;;;5012674;28;20038;-82
2022/12/04 02:34:59;;;;;;;77.18;24.83;;;3.30;99.30;;;;;;5012465;28;20061;-79
2022/12/04 02:37:35;;;;;;;65.60;24.13;;;3.20;99.40;;;;;;5013017;28;20134;-79
2022/12/04 02:40:10;;;;;;;77.78;24.70;;;3.30;99.50;;;;;;5013611;28;20037;-79
2022/12/04 02:42:39;;;;;;;65.65;23.73;;;3.30;99.50;;;;;;5012824;28;20026;-79
2022/12/04 02:45:15;;;;;;;70.22;24.10;;;3.30;99.50;;;;;;5012229;28;20033;-78
2022/12/04 02:47:43;;;;;;;69.13;23.67;;;3.30;99.60;;;;;;5010820;28;20120;-80
2022/12/04 02:50:13;;;;;;;71.28;25.27;;;3.30;99.60;;;;;;5010962;28;20030;-81
2022/12/04 02:52:56;;;;;;;67.28;22.80;;;3.40;99.60;;;;;;5012044;28;20464;-81
2022/12/04 02:55:28;;;;;;;66.00;23.60;;;3.30;99.70;;;;;;5011966;28;20483;-79
2022/12/04 02:57:59;;;;;;;76.03;23.95;;;3.40;99.60;;;;;;5011954;28;20095;-80
2022/12/04 03:00:25;;;;;;;68.65;25.30;;;3.40;99.50;;;;;;5012333;28;20025;-80
2022/12/04 03:03:09;;;;;;;65.53;23.80;;;3.40;99.60;;;;;;5010811;28;20113;-79
2022/12/04 03:05:55;;;;;;;61.38;22.83;;;3.40;99.60;;;;;;5010606;28;20029;-78
2022/12/04 03:08:28;;;;;;;67.75;24.05;;;3.40;99.60;;;;;;5011128;28;20044;-79
2022/12/04 03:10:59;;;;;;;67.88;23.75;;;3.30;99.60;;;;;;5011546;28;20038;-80
2022/12/04 03:13:48;;;;;;;68.15;23.90;;;3.30;99.60;;;;;;5010511;28;20103;-80
2022/12/04 03:16:34;;;;;;;70.22;24.33;;;3.30;99.60;;;;;;5011505;28;20022;-79
2022/12/04 03:19:07;;;;;;;60.38;22.48;;;3.30;99.70;;;;;;5011492;28;20483;-80
2022/12/04 03:21:37;;;;;;;69.13;24.13;;;3.30;99.60;;;;;;5011863;28;20030;-80
2022/12/04 03:24:32;;;;;;;66.03;25.23;;;3.50;99.70;;;;;;5011676;28;20132;-80
2022/12/04 03:27:12;;;;;;;69.10;23.98;;;3.40;99.70;;;;;;5011283;28;20128;-80
2022/12/04 03:29:59;;;;;;;69.05;23.45;;;3.40;99.90;;;;;;5011637;28;20041;-78
2022/12/04 03:32:40;;;;;;;73.32;24.15;;;3.40;99.60;;;;;;5011662;28;20041;-79
2022/12/04 03:35:24;;;;;;;68.05;23.10;;;3.40;99.70;;;;;;5010662;28;20092;-81
2022/12/04 03:37:59;;;;;;;63.65;24.77;;;3.40;99.70;;;;;;5011380;28;20034;-82
2022/12/04 03:40:34;;;;;;;73.03;25.50;;;3.40;99.70;;;;;;5011421;28;20511;-83
2022/12/04 03:43:03;;;;;;;76.35;25.45;;;3.40;99.70;;;;;;5010386;28;20054;-80
2022/12/04 03:45:42;;;;;;;72.85;26.13;;;3.40;99.70;;;;;;5010636;28;20026;-81
2022/12/04 03:48:20;;;;;;;69.90;25.42;;;3.50;99.70;;;;;;5012083;28;20048;-80
2022/12/04 03:50:49;;;;;;;;;;;3.50;99.70;;;;;;5015951;28;20045;-82
2022/12/04 03:53:31;;;;;;;70.60;24.98;;;3.50;99.70;;;;;;5014616;28;19909;-81
2022/12/04 03:56:09;;;;;;;71.93;23.77;;;3.50;99.70;;;;;;5015989;28;20129;-81
2022/12/04 03:58:39;;;;;;;73.95;25.08;;;3.50;99.80;;;;;;5015965;28;20480;-82
2022/12/04 04:01:08;;;;;;;74.47;25.65;;;3.50;99.80;;;;;;5014552;28;20825;-81
2022/12/04 04:03:46;;;;;;;72.72;27.02;;;3.50;99.80;;;;;;5015868;28;20028;-81
2022/12/04 04:06:27;;;;;;;73.30;26.27;;;3.50;99.80;;;;;;5014313;28;20419;-81
2022/12/04 04:09:00;;;;;;;73.22;25.67;;;3.50;99.90;;;;;;5015040;28;20364;-80
2022/12/04 04:11:34;;;;;;;72.78;25.02;;;3.50;99.90;;;;;;5014834;28;20049;-80
2022/12/04 04:25:28;;;;;;;79.28;27.35;;;3.40;99.90;;;;;;5014745;28;20129;-79
2022/12/04 04:27:57;;;;;;;81.05;27.10;;;3.40;99.90;;;;;;5013739;28;20124;-80
2022/12/04 04:30:23;;;;;;;77.90;28.35;;;3.40;99.90;;;;;;5015340;28;20480;-80
2022/12/04 04:32:57;;;;;;;80.93;29.10;;;3.40;99.90;;;;;;5015071;28;20034;-80
2022/12/04 04:35:50;;;;;;;71.75;26.92;;;3.40;99.90;;;;;;5013514;28;20099;-80
2022/12/04 04:38:22;;;;;;;71.70;26.73;;;3.50;99.90;;;;;;5013184;28;20045;-79
2022/12/04 04:40:56;;;;;;;73.05;27.63;;;3.50;99.90;;;;;;5013450;28;20034;-78
2022/12/04 04:43:42;;;;;;;80.82;28.98;;;3.50;99.90;;;;;;5013286;28;20026;-78
2022/12/04 04:46:17;;;;;;;78.57;27.13;;;3.50;99.90;;;;;;5014359;28;20096;-79
2022/12/04 04:48:56;;;;;;;79.05;28.55;;;3.60;99.90;;;;;;5014286;28;20033;-81
2022/12/04 04:51:22;;;;;;;82.50;30.23;;;3.60;99.90;;;;;;5013968;28;20034;-81
2022/12/04 04:53:51;;;;;;;88.32;29.15;;;3.60;99.90;;;;;;5027770;28;20472;-79
2022/12/04 04:56:18;;;;;;;77.82;29.63;;;3.60;99.90;;;;;;5013574;28;20487;-78
2022/12/04 04:58:43;;;;;;;78.00;29.85;;;3.60;99.90;;;;;;5013712;28;20034;-79
2022/12/04 05:01:18;;;;;;;81.65;29.15;;;3.60;99.90;;;;;;5013278;28;20044;-78
2022/12/04 05:03:45;;;;;;;86.30;30.80;;;3.60;99.90;;;;;;5014202;28;20014;-78
2022/12/04 05:06:10;;;;;;;83.18;30.45;;;3.60;99.90;;;;;;5013577;28;20026;-79
2022/12/04 05:08:37;;;;;;;80.70;30.55;;;3.60;99.90;;;;;;5014304;28;20041;-79
2022/12/04 05:11:03;;;;;;;75.90;29.50;;;3.60;99.90;;;;;;5014145;28;20058;-78
2022/12/04 05:13:31;;;;;;;79.75;29.50;;;3.60;99.90;;;;;;5014245;28;20054;-80
2022/12/04 05:15:59;;;;;;;80.43;30.08;;;3.60;99.90;;;;;;5013192;28;20101;-80
2022/12/04 05:18:25;;;;;;;73.47;29.58;;;3.60;99.90;;;;;;5014812;28;20141;-79
2022/12/04 05:20:51;;;;;;;76.13;29.13;;;3.60;99.90;;;;;;5012899;28;20330;-78
2022/12/04 05:23:17;;;;;;;72.32;28.27;;;3.70;99.90;;;;;;5014159;28;20037;-78
2022/12/04 05:25:43;;;;;;;83.70;30.25;;;3.60;99.90;;;;;;5013977;28;20034;-77
2022/12/04 05:28:08;;;;;;;75.80;28.35;;;3.60;99.90;;;;;;5012668;28;20453;-79
2022/12/04 05:30:34;;;;;;;77.75;29.45;;;3.60;99.90;;;;;;5014203;28;20022;-80
2022/12/04 05:33:00;;;;;;;79.38;29.95;;;3.60;99.90;;;;;;5013952;28;20085;-80
2022/12/04 05:35:25;;;;;;;78.97;29.83;;;3.60;99.90;;;;;;5013572;28;20049;-80
2022/12/04 05:37:51;;;;;;;79.72;29.27;;;3.60;99.90;;;;;;5013995;28;20030;-77
2022/12/04 05:40:16;;;;;;;80.35;30.63;;;3.70;99.90;;;;;;5012087;28;20053;-78
2022/12/04 05:42:42;;;;;;;83.32;30.05;;;3.70;99.90;;;;;;5013132;28;20513;-80
2022/12/04 05:45:08;;;;;;;74.82;29.60;;;3.70;99.90;;;;;;5013559;28;20033;-80
2022/12/04 05:47:39;;;;;;;78.53;29.98;;;3.70;99.80;;;;;;5012237;28;20029;-80
2022/12/04 05:50:06;;;;;;;78.45;29.88;;;3.70;99.90;;;;;;5013779;28;20026;-80
2022/12/04 05:52:32;;;;;;;85.78;29.60;;;3.80;99.90;;;;;;5014289;28;20033;-78
2022/12/04 05:54:57;;;;;;;77.18;29.38;;;3.90;99.70;;;;;;5013820;28;22368;-79
2022/12/04 05:57:23;;;;;;;82.32;30.02;;;3.80;99.70;;;;;;5014458;28;20026;-78
2022/12/04 05:59:49;;;;;;;76.10;29.83;;;3.80;99.70;;;;;;5012843;28;20366;-79
2022/12/04 06:02:15;;;;;;;76.07;28.00;;;3.70;99.60;;;;;;5011870;28;20026;-80
2022/12/04 06:04:41;;;;;;;73.18;28.05;;;3.80;99.70;;;;;;5013023;28;20411;-79
2022/12/04 06:07:08;;;;;;;79.93;30.63;;;3.80;99.60;;;;;;5011770;28;20084;-80
2022/12/04 06:09:34;;;;;;;83.15;30.58;;;3.80;99.60;;;;;;5012990;28;20037;-79
2022/12/04 06:12:00;;;;;;;69.00;27.23;;;3.90;99.60;;;;;;5012392;28;20045;-81
2022/12/04 06:14:26;;;;;;;75.38;29.83;;;3.80;99.70;;;;;;5011572;28;20072;-80
2022/12/04 06:16:52;;;;;;;80.28;29.95;;;3.80;99.70;;;;;;5012754;28;20065;-80
2022/12/04 06:19:19;;;;;;;81.75;30.10;;;3.80;99.70;;;;;;5012484;28;20050;-82
2022/12/04 06:21:47;;;;;;;64.07;27.20;;;3.80;99.70;;;;;;5011762;28;20067;-82
2022/12/04 06:24:24;;;;;;;71.13;28.55;;;3.90;99.70;;;;;;5011894;28;20737;-81
2022/12/04 06:26:54;;;;;;;74.95;28.48;;;3.80;99.60;;;;;;5011511;28;20472;-81
2022/12/04 06:29:19;;;;;;;71.30;29.45;;;3.80;99.50;;;;;;5012327;28;20026;-81
2022/12/04 06:31:45;;;;;;;71.63;27.80;;;3.90;99.60;;;;;;5011068;28;20148;-79
2022/12/04 06:34:11;;;;;;;71.05;28.30;;;3.90;99.60;;;;;;5012388;28;20464;-81
2022/12/04 06:36:36;;;;;;;70.13;26.92;;;3.90;99.60;;;;;;5011968;28;20026;-82
2022/12/04 06:39:03;;;;;;;66.07;26.80;;;3.80;99.60;;;;;;5012438;28;20044;-81
2022/12/04 06:41:30;;;;;;;69.20;28.17;;;3.90;99.90;;;;;;5012389;28;20033;-79
2022/12/04 06:43:56;;;;;;;69.15;28.58;;;3.80;99.60;;;;;;5012248;28;20473;-81
2022/12/04 06:46:27;;;;;;;76.43;30.13;;;3.80;99.60;;;;;;5010964;28;20131;-78
2022/12/04 06:48:54;;;;;;;67.63;26.48;;;3.80;99.60;;;;;;5011323;28;20030;-79
2022/12/04 06:51:23;;;;;;;73.38;28.10;;;3.80;99.70;;;;;;5012776;28;20033;-81
2022/12/04 06:53:50;;;;;;;69.55;27.58;;;3.90;99.60;;;;;;5011778;28;20022;-80
2022/12/04 06:56:19;;;;;;;65.53;26.85;;;3.90;99.60;;;;;;5010916;28;20033;-81
2022/12/04 06:58:46;;;;;;;68.43;26.40;;;3.90;99.50;;;;;;5011867;28;20057;-80
2022/12/04 07:01:14;;;;;;;68.90;27.52;;;3.90;99.40;;;;;;5011793;28;20119;-80
2022/12/04 07:03:41;;;;;;;71.68;26.38;;;4.10;99.70;;;;;;5011734;28;20037;-80
2022/12/04 07:06:16;;;;;;;68.88;27.67;;;3.90;99.50;;;;;;5012296;28;20038;-82
2022/12/04 07:08:43;;;;;;;67.28;27.15;;;3.90;99.50;;;;;;5011765;28;20030;-79
2022/12/04 07:11:09;;;;;;;75.70;28.60;;;3.80;99.50;;;;;;5011664;28;20046;-81
2022/12/04 07:13:35;;;;;;;74.28;29.80;;;3.80;99.60;;;;;;5011983;28;20500;-80
2022/12/04 07:16:03;;;;;;;70.72;27.65;;;4.00;99.70;;;;;;5010589;28;20048;-80
2022/12/04 07:18:29;;;;;;;76.70;28.70;;;3.90;99.60;;;;;;5011954;28;20072;-79
2022/12/04 07:20:55;;;;;;;72.28;29.23;;;4.10;99.70;;;;;;5010565;28;20033;-79
2022/12/04 07:23:21;;;;;;;74.38;27.88;;;4.00;99.60;;;;;;5009696;28;20037;-81
2022/12/04 07:25:47;;;;;;;71.15;27.08;;;3.90;99.50;;;;;;5011347;28;20101;-80
2022/12/04 07:28:12;;;;;;;62.20;25.75;;;4.00;99.40;;;;;;5011387;28;20045;-80
2022/12/04 07:30:38;;;;;;;66.25;26.10;;;4.00;99.40;;;;;;5011195;28;20049;-78
2022/12/04 07:33:04;;;;;;;64.60;26.70;;;4.00;99.40;;;;;;5010841;28;20130;-80
2022/12/04 07:35:30;;;;;;;66.43;27.08;;;4.00;99.40;;;;;;5011330;28;20030;-81
2022/12/04 07:37:56;;;;;;;68.00;27.65;;;4.00;99.40;;;;;;5011682;28;20372;-80
2022/12/04 07:40:21;;;;;;;69.55;26.92;;;4.00;99.40;;;;;;5011119;28;20526;-79
2022/12/04 07:42:47;;;;;;;66.57;26.58;;;4.00;99.30;;;;;;5011300;28;20055;-81
2022/12/04 07:45:13;;;;;;;71.20;27.95;;;4.00;99.30;;;;;;5011879;28;20056;-79
2022/12/04 07:47:39;;;;;;;72.85;26.50;;;4.00;99.40;;;;;;5011357;28;20116;-80
2022/12/04 07:50:05;;;;;;;72.38;26.58;;;4.00;99.40;;;;;;5010414;28;20128;-80
2022/12/04 07:52:36;;;;;;;77.28;28.45;;;3.90;99.40;;;;;;5010900;28;20041;-81
2022/12/04 07:55:01;;;;;;;75.93;27.10;;;3.90;99.30;;;;;;5011451;28;20105;-81
2022/12/04 07:57:27;;;;;;;68.57;26.80;;;4.00;99.30;;;;;;5011708;28;20033;-81
2022/12/04 07:59:53;;;;;;;68.72;26.70;;;4.00;99.20;;;;;;5011118;28;20121;-80
2022/12/04 08:02:19;;;;;;;68.13;26.70;;;4.00;99.20;;;;;;5011197;28;20026;-80
2022/12/04 08:04:46;;;;;;;71.57;26.17;;;4.00;99.00;;;;;;5011275;28;20037;-83
2022/12/04 08:07:11;;;;;;;70.22;27.02;;;4.00;99.00;;;;;;5011171;28;20034;-81
2022/12/04 08:09:37;;;;;;;68.03;26.63;;;4.00;99.00;;;;;;5010590;28;20033;-80
2022/12/04 08:12:03;;;;;;;74.20;27.90;;;3.90;99.10;;;;;;4991627;28;20055;-80
2022/12/04 08:14:29;;;;;;;70.45;27.90;;;4.00;99.20;;;;;;5005501;28;20052;-79
2022/12/04 08:16:54;;;;;;;65.88;26.70;;;4.00;99.20;;;;;;5009938;28;20041;-79
2022/12/04 08:19:21;;;;;;;71.97;27.63;;;4.00;99.20;;;;;;5010179;28;20050;-79
2022/12/04 08:21:46;;;;;;;66.85;27.95;;;4.00;99.30;;;;;;5011014;28;20456;-80
2022/12/04 08:24:12;;;;;;;67.20;25.83;;;4.00;99.20;;;;;;5011553;28;20037;-78
2022/12/04 08:26:38;;;;;;;70.53;26.70;;;4.00;99.20;;;;;;5010724;28;20476;-78
2022/12/04 08:29:05;;;;;;;72.78;27.50;;;4.00;99.20;;;;;;5011078;28;20054;-79
2022/12/04 08:31:32;;;;;;;70.57;27.80;;;4.10;99.30;;;;;;5010946;28;20040;-79
2022/12/04 08:34:01;;;;;;;65.40;27.95;;;4.00;99.30;;;;;;5011429;28;20040;-79
2022/12/04 08:36:27;;;;;;;76.13;28.60;;;4.10;99.40;;;;;;5014074;28;20118;-78
2022/12/04 08:38:54;;;;;;;71.50;28.60;;;4.00;99.30;;;;;;5014478;28;20038;-79
2022/12/04 08:41:22;;;;;;;72.43;27.48;;;4.10;99.30;;;;;;5014617;28;20329;-82
2022/12/04 08:43:48;;;;;;;64.93;26.75;;;4.00;99.10;;;;;;5014614;28;20034;-81
2022/12/04 08:46:15;;;;;;;66.40;27.88;;;4.10;99.20;;;;;;5014575;28;20044;-83
2022/12/04 08:48:41;;;;;;;71.35;28.85;;;4.10;99.20;;;;;;5013331;28;20359;-75
2022/12/04 08:51:15;;;;;;;64.25;26.67;;;4.10;99.10;;;;;;5013978;28;20120;-79
2022/12/04 08:53:42;;;;;;;69.40;28.55;;;4.00;99.10;;;;;;5013419;28;20042;-79
2022/12/04 08:56:07;;;;;;;67.82;27.45;;;4.00;99.20;;;;;;5014216;28;20322;-77
2022/12/04 08:58:33;;;;;;;72.78;27.63;;;4.10;99.20;;;;;;5013209;28;20041;-75
2022/12/04 09:01:09;;;;;;;74.03;27.90;;;4.20;99.20;;;;;;5014033;28;20022;-73
2022/12/04 09:03:36;;;;;;;71.80;27.73;;;4.10;99.10;;;;;;5014735;28;20028;-76
2022/12/04 09:06:03;;;;;;;77.45;29.83;;;4.10;99.10;;;;;;5013462;28;20041;-79
2022/12/04 09:08:29;;;;;;;67.68;27.75;;;4.10;99.30;;;;;;5014293;28;20061;-79
2022/12/04 09:11:01;;;;;;;71.20;28.60;;;4.10;99.30;;;;;;5013785;28;20037;-81
2022/12/04 09:13:26;;;;;;;69.00;28.88;;;4.10;99.20;;;;;;5013022;28;20072;-78
2022/12/04 09:15:52;;;;;;;79.78;30.17;;;4.20;99.30;;;;;;5012905;28;20052;-78
2022/12/04 09:18:18;;;;;;;74.18;30.60;;;4.20;99.30;;;;;;5013071;28;20030;-80
2022/12/04 09:20:43;;;;;;;76.95;30.75;;;4.20;99.30;;;;;;5013640;28;20026;-81
2022/12/04 09:23:09;;;;;;;74.57;30.02;;;4.20;99.30;;;;;;5012694;28;20026;-78
2022/12/04 09:25:36;;;;;;;74.28;29.92;;;4.30;99.20;;;;;;5012509;28;20053;-82
2022/12/04 09:28:03;;;;;;;77.50;30.50;;;4.30;99.20;;;;;;5014074;28;20359;-81
2022/12/04 09:30:29;;;;;;;76.28;31.10;;;4.30;99.20;;;;;;5014838;28;20094;-82
2022/12/04 09:32:55;;;;;;;78.22;30.25;;;4.30;99.10;;;;;;5013897;28;20500;-82
2022/12/04 09:35:20;;;;;;;82.60;30.73;;;4.30;99.10;;;;;;5014093;28;20048;-79
2022/12/04 09:37:46;;;;;;;77.55;31.05;;;4.30;99.20;;;;;;5012579;28;20034;-80
2022/12/04 09:40:25;;;;;;;81.28;30.45;;;4.20;99.10;;;;;;5013557;28;20072;-80
2022/12/04 09:43:02;;;;;;;83.13;30.88;;;4.20;99.10;;;;;;5013797;28;20029;-81
2022/12/04 09:45:40;;;;;;;75.78;30.52;;;4.20;99.40;;;;;;5013613;28;20030;-81
2022/12/04 09:48:11;;;;;;;77.80;31.05;;;4.20;99.10;;;;;;5013340;28;20120;-79
2022/12/04 09:50:41;;;;;;;74.03;29.08;;;4.20;99.00;;;;;;5012208;28;20041;-77
2022/12/04 09:53:25;;;;;;;76.90;30.45;;;4.30;99.20;;;;;;5013345;28;20058;-79
2022/12/04 09:55:58;;;;;;;73.20;30.65;;;4.20;99.10;;;;;;5013855;28;20103;-83
2022/12/04 09:58:45;;;;;;;69.70;28.60;;;4.20;99.10;;;;;;5013239;28;20120;-78
2022/12/04 10:01:48;;;;;;;85.95;33.78;;;4.20;99.10;;;;;;5012294;28;20063;-75
2022/12/04 10:04:15;;;;;;;73.10;29.45;;;4.30;99.20;;;;;;5020000;28;20033;-77
2022/12/04 10:06:56;;;;;;;73.80;28.63;;;4.20;99.20;;;;;;5032006;28;20033;-76
2022/12/04 10:09:29;;;;;;;72.90;31.08;;;4.20;99.30;;;;;;5032395;28;20359;-75
2022/12/04 10:12:21;;;;;;;78.93;30.45;;;4.30;99.30;;;;;;5031469;28;20451;-77
2022/12/04 10:14:56;;;;;;;77.53;31.95;;;4.30;99.30;;;;;;5030546;28;20033;-76
2022/12/04 10:17:31;;;;;;;88.15;32.88;;;4.30;99.40;;;;;;5032537;28;20040;-77
2022/12/04 10:20:40;;;;;;;73.60;30.38;;;4.30;99.30;;;;;;5032215;28;20041;-75
2022/12/04 10:23:21;;;;;;;70.30;29.63;;;4.30;99.40;;;;;;5032295;28;20119;-78
2022/12/04 10:25:50;;;;;;;90.85;34.15;;;4.30;99.40;;;;;;5031158;28;20029;-75
2022/12/04 10:28:33;;;;;;;81.22;32.08;;;4.40;99.40;;;;;;5032321;28;20034;-74
2022/12/04 10:31:01;;;;;;;80.88;30.55;;;4.30;99.40;;;;;;5032197;28;20033;-77
2022/12/04 10:33:31;;;;;;;84.20;31.73;;;4.40;99.40;;;;;;5032717;28;20026;-75
2022/12/04 10:35:57;;;;;;;85.38;31.85;;;4.40;99.30;;;;;;5032576;28;20080;-76
2022/12/04 10:38:43;;;;;;;84.25;31.10;;;4.50;99.30;;;;;;5031684;28;20069;-75
2022/12/04 10:41:26;;;;;;;78.50;30.95;;;4.40;99.60;;;;;;5023849;28;20482;-75
2022/12/04 10:43:51;;;;;;;79.80;30.23;;;4.40;99.40;;;;;;5030981;28;20033;-77
2022/12/04 10:46:30;;;;;;;76.45;30.30;;;4.50;99.40;;;;;;5033834;28;20036;-75
2022/12/04 10:49:02;;;;;;;78.90;30.65;;;4.40;99.40;;;;;;5031138;28;20036;-71
2022/12/04 10:51:37;;;;;;;83.25;32.45;;;4.40;99.40;;;;;;5032020;28;20033;-79
2022/12/04 10:54:21;;;;;;;81.25;29.95;;;4.40;99.50;;;;;;5031911;28;20025;-77
2022/12/04 10:56:55;;;;;;;83.22;32.38;;;4.40;99.40;;;;;;5030409;28;20037;-73
2022/12/04 10:59:22;;;;;;;78.78;30.50;;;4.40;99.40;;;;;;5031660;28;20113;-71
2022/12/04 11:01:49;;;;;;;80.85;31.13;;;4.40;99.30;;;;;;5030748;28;20026;-77
2022/12/04 11:04:22;;;;;;;85.93;32.03;;;4.40;99.40;;;;;;5031923;28;20067;-72
2022/12/04 11:06:49;;;;;;;82.28;31.75;;;4.30;99.40;;;;;;5030511;28;20026;-74
2022/12/04 11:09:22;;;;;;;82.65;31.00;;;4.40;99.50;;;;;;5031926;28;20029;-72
2022/12/04 11:11:48;;;;;;;78.57;30.05;;;4.50;99.50;;;;;;5031291;28;20092;-73
2022/12/04 11:14:17;;;;;;;84.22;31.10;;;4.40;99.50;;;;;;5030513;28;20037;-74
2022/12/04 11:16:47;;;;;;;81.18;32.63;;;4.40;99.60;;;;;;5031180;28;20030;-75
2022/12/04 11:19:21;;;;;;;85.68;32.42;;;4.50;99.70;;;;;;5031193;28;20092;-75
2022/12/04 11:21:47;;;;;;;78.50;30.70;;;4.40;99.70;;;;;;5031619;28;20029;-77
2022/12/04 11:24:21;;;;;;;75.38;29.70;;;4.40;99.90;;;;;;5020134;28;20033;-77
2022/12/04 11:26:47;;;;;;;78.63;29.70;;;4.40;99.70;;;;;;5011578;28;20045;-77
2022/12/04 11:29:16;;;;;;;75.38;30.10;;;4.40;99.80;;;;;;5010325;28;20079;-77
2022/12/04 11:31:50;;;;;;;80.30;31.65;;;4.30;99.80;;;;;;5011209;28;20113;-76
2022/12/04 11:34:22;;;;;;;77.88;30.02;;;4.30;99.80;;;;;;5012200;28;20371;-83
2022/12/04 11:36:55;;;;;;;82.15;31.95;;;4.40;99.90;;;;;;5011478;28;20443;-73
2022/12/04 11:39:35;;;;;;;76.60;29.80;;;4.40;99.90;;;;;;5011493;28;20105;-75
2022/12/04 11:42:16;;;;;;;83.05;30.77;;;4.40;99.90;;;;;;5011257;28;20116;-76
2022/12/04 11:44:49;;;;;;;84.28;30.52;;;4.40;99.90;;;;;;5011012;28;20041;-75
2022/12/04 11:47:18;;;;;;;80.65;29.98;;;4.40;99.90;;;;;;5011510;28;20036;-75
2022/12/04 11:49:44;;;;;;;83.53;30.10;;;4.50;99.90;;;;;;5011147;28;20121;-76
2022/12/04 11:52:16;;;;;;;78.38;31.13;;;4.50;99.90;;;;;;5011660;28;20029;-76
2022/12/04 11:54:45;;;;;;;78.32;31.42;;;4.60;99.90;;;;;;5011278;28;20026;-76
2022/12/04 11:57:28;;;;;;;79.53;29.63;;;4.50;99.90;;;;;;5011479;28;20151;-75
2022/12/04 12:00:00;;;;;;;88.35;33.28;;;4.60;99.90;;;;;;5011301;28;20034;-76
2022/12/04 12:03:00;;;;;;;82.05;29.92;;;4.60;99.90;;;;;;5010828;28;20474;-75
2022/12/04 12:05:53;;;;;;;78.68;29.27;;;4.60;99.90;;;;;;5010240;28;20057;-74
2022/12/04 12:08:52;;;;;;;77.93;29.80;;;4.60;99.90;;;;;;5011017;28;20038;-76
2022/12/04 12:11:39;;;;;;;81.18;29.27;;;4.60;99.90;;;;;;5014823;28;20125;-75
2022/12/04 12:14:26;;;;;;;76.90;29.92;;;4.60;99.90;;;;;;5015319;28;20026;-77
2022/12/04 12:17:05;;;;;;;77.95;30.02;;;4.60;99.90;;;;;;5014347;28;20136;-77
2022/12/04 12:19:46;;;;;;;80.78;30.10;;;4.60;99.90;;;;;;5014896;28;20046;-77
2022/12/04 12:22:35;;;;;;;87.03;30.45;;;4.60;99.90;;;;;;5014896;28;20056;-74
2022/12/04 12:25:08;;;;;;;78.78;28.90;;;4.60;99.90;;;;;;5013891;28;20036;-76
2022/12/04 12:28:19;;;;;;;79.72;30.10;;;4.60;99.90;;;;;;5013970;28;20026;-76
2022/12/04 12:31:22;;;;;;;78.78;31.15;;;4.60;99.90;;;;;;5014980;28;20046;-80
2022/12/04 12:33:57;;;;;;;77.38;29.98;;;4.60;99.90;;;;;;5013833;28;20103;-78
2022/12/04 12:36:25;;;;;;;82.03;30.15;;;4.60;99.90;;;;;;5014130;28;20075;-75
2022/12/04 12:38:56;;;;;;;75.00;28.60;;;4.60;99.90;;;;;;5014777;28;20044;-77
2022/12/04 12:41:29;;;;;;;88.65;31.05;;;4.60;99.90;;;;;;5014648;28;20095;-81
2022/12/04 12:44:29;;;;;;;81.55;29.65;;;4.60;99.90;;;;;;5013454;28;20362;-74
2022/12/04 12:47:08;;;;;;;82.15;31.35;;;4.60;99.90;;;;;;5017174;28;20029;-77
2022/12/04 12:49:57;;;;;;;83.00;31.90;;;4.60;99.90;;;;;;5034427;28;20035;-77
2022/12/04 12:52:42;;;;;;;86.07;31.20;;;4.60;99.90;;;;;;5027290;28;20022;-88
2022/12/04 12:55:21;;;;;;;85.88;32.03;;;4.60;99.90;;;;;;5033490;28;20372;-75
2022/12/04 12:58:13;;;;;;;73.25;29.42;;;4.60;99.90;;;;;;5033910;28;20025;-77
2022/12/04 13:00:45;;;;;;;91.45;32.53;;;4.60;99.90;;;;;;5033748;28;20029;-77
2022/12/04 13:03:25;;;;;;;80.47;30.27;;;4.60;99.90;;;;;;5034652;28;20021;-79
2022/12/04 13:05:55;;;;;;;82.05;30.83;;;4.60;99.90;;;;;;5032878;28;20582;-77
2022/12/04 13:08:26;;;;;;;78.60;30.17;;;4.60;99.90;;;;;;5033210;28;20029;-76
2022/12/04 13:11:11;;;;;;;82.07;30.92;;;4.60;99.90;;;;;;5032305;28;20490;-77